Time;durP1;ratioP1;P1;durP2;ratioP2;P2;SDS_P1;SDS_P2;PMS_P1;PMS_P2;Temp;Humidity;BMP_temperature;BMP_pressure;BME280_temperature;BME280_humidity;BME280_pressure;Samples;Min_cycle;Max_cycle;Signal;HPM_P1;HPM_P2
2023/01/05 00:00:55;;;;;;;2.10;1.90;;;11.40;99.90;;;;;;5015279;28;20918;-78
2023/01/05 00:03:22;;;;;;;9.97;3.57;;;11.40;99.90;;;;;;5014927;28;20462;-78
2023/01/05 00:05:49;;;;;;;0.60;0.60;;;11.40;99.90;;;;;;5013536;28;20475;-77
2023/01/05 00:08:16;;;;;;;1.50;1.40;;;11.40;99.90;;;;;;5012801;28;20825;-78
2023/01/05 00:24:28;;;;;;;10.03;1.43;;;11.30;99.90;;;;;;5013192;28;20777;-78
2023/01/05 00:26:55;;;;;;;8.93;1.37;;;11.30;99.90;;;;;;5014744;28;20450;-78
2023/01/05 00:29:23;;;;;;;2.60;2.40;;;11.20;99.90;;;;;;5014146;28;20474;-78
2023/01/05 00:31:50;;;;;;;0.50;0.50;;;11.30;99.90;;;;;;5014988;28;20439;-79
2023/01/05 00:34:16;;;;;;;0.87;0.70;;;11.30;99.90;;;;;;5013637;28;20453;-79
2023/01/05 00:36:43;;;;;;;1.00;0.90;;;11.20;99.90;;;;;;5015011;28;20525;-79
2023/01/05 00:39:10;;;;;;;0.50;0.40;;;11.30;99.90;;;;;;5014700;28;20469;-78
2023/01/05 00:41:37;;;;;;;0.50;0.40;;;11.30;99.90;;;;;;5014932;28;20597;-78
2023/01/05 00:44:04;;;;;;;34.03;4.07;;;11.30;99.90;;;;;;5013938;28;20891;-78
2023/01/05 00:46:32;;;;;;;0.90;0.90;;;11.30;99.90;;;;;;5014511;28;20498;-79
2023/01/05 00:48:59;;;;;;;1.43;1.33;;;11.30;99.90;;;;;;5013835;28;20473;-79
2023/01/05 00:51:26;;;;;;;14.20;1.63;;;11.20;99.90;;;;;;5014241;28;20527;-79
2023/01/05 00:53:53;;;;;;;2.07;1.70;;;11.20;99.90;;;;;;5014259;28;20462;-78
2023/01/05 00:56:19;;;;;;;0.50;0.40;;;11.20;99.90;;;;;;5013961;28;20519;-79
2023/01/05 00:58:46;;;;;;;0.50;0.45;;;11.20;99.90;;;;;;5014492;28;20550;-79
2023/01/05 01:01:13;;;;;;;3.57;2.03;;;11.20;99.90;;;;;;5014326;28;20222;-77
2023/01/05 01:03:42;;;;;;;1.20;1.10;;;11.20;99.90;;;;;;5015306;28;20857;-79
2023/01/05 01:06:09;;;;;;;0.50;0.40;;;11.20;99.90;;;;;;5013040;28;20497;-79
2023/01/05 01:08:35;;;;;;;0.90;0.90;;;11.20;99.90;;;;;;5014085;28;20521;-79
2023/01/05 01:11:07;;;;;;;2.40;0.87;;;11.20;99.90;;;;;;5014219;28;20518;-78
2023/01/05 01:13:34;;;;;;;3.80;2.20;;;11.20;99.90;;;;;;5014088;28;20443;-79
2023/01/05 01:16:06;;;;;;;0.50;0.40;;;11.20;99.90;;;;;;5014078;28;21022;-79
2023/01/05 01:18:33;;;;;;;4.00;2.00;;;11.20;99.90;;;;;;5020508;28;20477;-78
2023/01/05 01:21:02;;;;;;;19.77;3.23;;;11.20;99.90;;;;;;5015713;28;20475;-77
2023/01/05 01:23:29;;;;;;;2.00;1.90;;;11.20;99.90;;;;;;5013518;28;20487;-79
2023/01/05 01:25:56;;;;;;;1.57;1.47;;;11.20;99.90;;;;;;5012717;28;20443;-78
2023/01/05 01:28:23;;;;;;;0.70;0.50;;;11.20;99.90;;;;;;5013646;28;20470;-79
2023/01/05 01:30:50;;;;;;;0.80;0.67;;;11.20;99.90;;;;;;5013310;28;20431;-79
2023/01/05 01:33:17;;;;;;;0.60;0.60;;;11.20;99.90;;;;;;5014459;28;20522;-79
2023/01/05 01:35:44;;;;;;;1.63;1.33;;;11.20;99.90;;;;;;5012953;28;20438;-78
2023/01/05 01:38:12;;;;;;;0.50;0.43;;;11.20;99.90;;;;;;5013825;28;20817;-77
2023/01/05 01:40:40;;;;;;;1.27;1.03;;;11.10;99.90;;;;;;5013621;28;20471;-78
2023/01/05 01:43:13;;;;;;;2.00;1.13;;;11.10;99.90;;;;;;5013587;28;20438;-79
2023/01/05 01:45:40;;;;;;;4.60;1.73;;;11.10;99.90;;;;;;5012755;28;20507;-78
2023/01/05 01:48:09;;;;;;;0.50;0.43;;;11.10;99.90;;;;;;5013506;28;20518;-79
2023/01/05 01:50:40;;;;;;;3.27;1.40;;;11.10;99.90;;;;;;5012883;28;20441;-79
2023/01/05 01:53:11;;;;;;;3.17;2.97;;;11.10;99.90;;;;;;5013945;28;20447;-78
2023/01/05 01:55:40;;;;;;;1.83;1.43;;;11.00;99.90;;;;;;5013748;28;20453;-79
2023/01/05 01:58:12;;;;;;;3.33;1.00;;;11.00;99.90;;;;;;5019636;28;20538;-79
2023/01/05 02:00:39;;;;;;;1.70;1.03;;;11.00;99.90;;;;;;5019567;28;20558;-79
2023/01/05 02:03:06;;;;;;;5.90;1.37;;;11.00;99.90;;;;;;5020336;28;20447;-78
2023/01/05 02:05:36;;;;;;;1.73;1.05;;;11.00;99.90;;;;;;5017544;28;20808;-78
2023/01/05 02:08:03;;;;;;;1.47;0.70;;;11.00;99.90;;;;;;5021115;28;20688;-78
2023/01/05 02:10:45;;;;;;;2.57;2.40;;;11.00;99.90;;;;;;5022828;28;20513;-78
2023/01/05 02:13:27;;;;;;;0.80;0.80;;;11.00;99.90;;;;;;5020258;28;20474;-78
2023/01/05 02:16:03;;;;;;;0.60;0.60;;;11.00;99.90;;;;;;5018880;28;20423;-78
2023/01/05 02:18:44;;;;;;;12.10;1.15;;;11.00;99.90;;;;;;5018278;28;20459;-78
2023/01/05 02:21:23;;;;;;;0.73;0.73;;;11.00;99.90;;;;;;5016737;28;20589;-78
2023/01/05 02:24:16;;;;;;;1.03;1.03;;;10.90;99.90;;;;;;5016841;28;20437;-78
2023/01/05 02:27:14;;;;;;;0.50;0.40;;;10.90;99.90;;;;;;5016565;28;20497;-78
2023/01/05 02:30:15;;;;;;;15.33;2.30;;;10.90;99.90;;;;;;5016849;28;20498;-78
2023/01/05 02:32:53;;;;;;;0.50;0.40;;;10.90;99.90;;;;;;5018867;28;20457;-79
2023/01/05 02:35:28;;;;;;;8.90;3.57;;;10.80;99.90;;;;;;5018519;28;20435;-78
2023/01/05 02:38:01;;;;;;;2.80;1.03;;;10.80;99.90;;;;;;5019176;28;20509;-79
2023/01/05 02:40:32;;;;;;;0.95;0.60;;;10.80;99.90;;;;;;5019519;28;20439;-79
2023/01/05 02:43:01;;;;;;;0.50;0.40;;;10.80;99.90;;;;;;5017343;28;20287;-79
2023/01/05 02:45:28;;;;;;;2.97;2.25;;;10.80;99.90;;;;;;5018531;28;20449;-78
2023/01/05 02:47:56;;;;;;;2.47;1.27;;;10.80;99.90;;;;;;5016685;28;20207;-78
2023/01/05 02:50:29;;;;;;;18.93;2.80;;;10.80;99.90;;;;;;5015762;28;20447;-78
2023/01/05 02:53:00;;;;;;;2.40;2.20;;;10.80;99.90;;;;;;5016383;28;20416;-79
2023/01/05 02:55:32;;;;;;;25.87;2.20;;;10.80;99.90;;;;;;5015631;28;20445;-79
2023/01/05 02:58:04;;;;;;;0.50;0.40;;;10.80;99.90;;;;;;5016327;28;20466;-78
2023/01/05 03:00:37;;;;;;;17.13;2.00;;;10.80;99.90;;;;;;5016609;28;20184;-78
2023/01/05 03:03:10;;;;;;;1.00;0.90;;;10.70;99.90;;;;;;5016213;28;20533;-78
2023/01/05 03:05:43;;;;;;;1.45;1.35;;;10.70;99.90;;;;;;5015871;28;20192;-78
2023/01/05 03:08:20;;;;;;;1.60;0.90;;;10.70;99.90;;;;;;5015521;28;20282;-78
2023/01/05 03:13:46;;;;;;;0.50;0.40;;;10.70;99.90;;;;;;5016850;28;20248;-80
2023/01/05 03:16:18;;;;;;;2.70;1.40;;;10.70;99.90;;;;;;5016084;28;20933;-79
2023/01/05 03:35:33;;;;;;;3.23;0.63;;;10.60;99.90;;;;;;5015314;28;20403;-79
2023/01/05 03:38:13;;;;;;;0.70;0.70;;;10.60;99.90;;;;;;5016027;28;20430;-78
2023/01/05 03:40:42;;;;;;;4.53;2.05;;;10.60;99.90;;;;;;5016315;28;20431;-78
2023/01/05 03:43:09;;;;;;;2.35;2.15;;;10.60;99.90;;;;;;5016984;28;20235;-79
2023/01/05 03:45:41;;;;;;;5.47;0.80;;;10.60;99.90;;;;;;5014938;28;20704;-78
2023/01/05 03:48:08;;;;;;;1.00;0.90;;;10.60;99.90;;;;;;5015809;28;20427;-78
2023/01/05 03:50:37;;;;;;;4.10;1.90;;;10.60;99.90;;;;;;5014784;28;20868;-78
2023/01/05 03:53:04;;;;;;;0.80;0.80;;;10.60;99.90;;;;;;5015634;28;20945;-76
2023/01/05 03:55:31;;;;;;;3.30;1.60;;;10.60;99.90;;;;;;5014744;28;20199;-78
2023/01/05 03:57:58;;;;;;;3.60;1.57;;;10.60;99.90;;;;;;5015382;28;20438;-78
2023/01/05 04:00:25;;;;;;;1.33;1.30;;;10.60;99.90;;;;;;5015809;28;20545;-78
2023/01/05 04:02:52;;;;;;;2.20;1.50;;;10.60;99.90;;;;;;5015327;28;20486;-78
2023/01/05 04:05:19;;;;;;;2.93;0.60;;;10.60;99.90;;;;;;5013884;28;20449;-78
2023/01/05 04:07:48;;;;;;;3.30;0.60;;;10.60;99.90;;;;;;5014625;28;20951;-78
2023/01/05 04:10:15;;;;;;;12.77;1.70;;;10.60;99.90;;;;;;5015299;28;20494;-79
2023/01/05 04:12:41;;;;;;;0.63;0.63;;;10.50;99.90;;;;;;5015307;28;20511;-78
2023/01/05 04:15:09;;;;;;;2.97;0.80;;;10.50;99.90;;;;;;5014992;28;20287;-77
2023/01/05 04:17:36;;;;;;;3.63;1.20;;;10.50;99.90;;;;;;5014623;28;20441;-78
2023/01/05 04:20:04;;;;;;;0.70;0.70;;;10.50;99.90;;;;;;5014282;28;20467;-78
2023/01/05 04:22:31;;;;;;;0.90;0.87;;;10.50;99.90;;;;;;5014389;28;21012;-79
2023/01/05 04:24:59;;;;;;;0.60;0.60;;;10.60;99.90;;;;;;5014510;28;20439;-79
2023/01/05 04:27:26;;;;;;;3.83;1.57;;;10.50;99.90;;;;;;5015284;28;20199;-79
2023/01/05 04:32:26;;;;;;;3.05;1.35;;;10.50;99.90;;;;;;5017862;28;20463;-83
2023/01/05 04:34:53;;;;;;;0.70;0.70;;;10.50;99.90;;;;;;5029009;28;20283;-82
2023/01/05 04:37:20;;;;;;;4.00;2.40;;;10.60;99.90;;;;;;5037864;28;20525;-82
2023/01/05 04:39:46;;;;;;;0.77;0.77;;;10.50;99.90;;;;;;5029604;28;20439;-84
2023/01/05 04:42:14;;;;;;;4.73;1.33;;;10.50;99.90;;;;;;4997951;28;20562;-83
2023/01/05 04:44:41;;;;;;;0.93;0.70;;;10.50;99.90;;;;;;4997503;28;20475;-83
2023/01/05 04:47:08;;;;;;;0.50;0.40;;;10.50;99.90;;;;;;4998580;28;20671;-82
2023/01/05 04:49:35;;;;;;;5.90;0.57;;;10.50;99.90;;;;;;4998347;28;20208;-84
2023/01/05 04:52:02;;;;;;;1.05;1.00;;;10.50;99.90;;;;;;4998833;28;20552;-82
2023/01/05 04:54:29;;;;;;;1.13;0.97;;;10.50;99.90;;;;;;4997637;28;20607;-81
2023/01/05 04:56:56;;;;;;;0.50;0.40;;;10.50;99.90;;;;;;4998120;28;20440;-83
2023/01/05 04:59:24;;;;;;;0.53;0.50;;;10.50;99.90;;;;;;4998317;28;20596;-82
2023/01/05 05:01:51;;;;;;;0.50;0.40;;;10.50;99.90;;;;;;4997975;28;20977;-79
2023/01/05 05:04:17;;;;;;;4.70;1.63;;;10.50;99.90;;;;;;4997701;28;20539;-82
2023/01/05 05:06:44;;;;;;;1.40;1.00;;;10.50;99.90;;;;;;4996583;28;20530;-83
2023/01/05 05:09:11;;;;;;;0.50;0.40;;;10.50;99.90;;;;;;4998272;28;20442;-83
2023/01/05 05:11:38;;;;;;;0.70;0.70;;;10.40;99.90;;;;;;4998263;28;20584;-82
2023/01/05 05:14:05;;;;;;;2.70;2.50;;;10.40;99.90;;;;;;4996968;28;20228;-83
2023/01/05 05:16:33;;;;;;;3.45;3.15;;;10.30;99.90;;;;;;4998581;28;20487;-83
2023/01/05 05:19:00;;;;;;;1.60;1.02;;;10.20;99.90;;;;;;4997422;28;20196;-83
2023/01/05 05:21:27;;;;;;;3.08;1.35;;;10.20;99.90;;;;;;4998096;28;20630;-81
2023/01/05 05:23:54;;;;;;;4.27;1.10;;;10.10;99.90;;;;;;4997478;28;20228;-82
2023/01/05 05:26:20;;;;;;;0.50;0.40;;;10.00;99.90;;;;;;4998147;28;20446;-82
2023/01/05 05:28:47;;;;;;;5.43;1.90;;;10.00;99.90;;;;;;4997514;28;20521;-82
2023/01/05 05:31:14;;;;;;;13.07;1.80;;;10.00;99.90;;;;;;4995949;28;20484;-83
2023/01/05 05:33:42;;;;;;;0.50;0.40;;;10.00;99.90;;;;;;4996570;28;20220;-82
2023/01/05 05:36:09;;;;;;;0.93;0.93;;;9.90;99.90;;;;;;4996347;28;20236;-82
2023/01/05 05:38:36;;;;;;;0.50;0.40;;;9.90;99.90;;;;;;4996504;28;20451;-84
2023/01/05 05:41:03;;;;;;;1.17;1.05;;;9.90;99.90;;;;;;4997428;28;20744;-82
2023/01/05 05:43:30;;;;;;;0.80;0.80;;;9.90;99.90;;;;;;4996634;28;20749;-82
2023/01/05 05:45:57;;;;;;;0.90;0.90;;;9.90;99.90;;;;;;4995582;28;20258;-82
2023/01/05 05:48:24;;;;;;;2.25;1.08;;;9.90;99.90;;;;;;4996915;28;20207;-82
2023/01/05 05:50:52;;;;;;;0.90;0.63;;;9.90;99.90;;;;;;4996406;28;20213;-80
2023/01/05 05:53:19;;;;;;;0.50;0.40;;;9.90;99.90;;;;;;4996789;28;20629;-82
2023/01/05 05:55:48;;;;;;;2.15;1.02;;;9.90;99.90;;;;;;4996010;28;20449;-84
2023/01/05 05:58:15;;;;;;;1.08;1.08;;;9.90;99.90;;;;;;4996797;28;20204;-83
2023/01/05 06:00:42;;;;;;;1.20;1.13;;;9.90;99.90;;;;;;4996290;28;20777;-85
2023/01/05 06:03:09;;;;;;;15.57;1.35;;;9.80;99.90;;;;;;4996950;28;20669;-80
2023/01/05 06:05:35;;;;;;;1.55;1.13;;;9.90;99.90;;;;;;4994222;28;20275;-83
2023/01/05 06:08:04;;;;;;;1.48;0.98;;;9.80;99.90;;;;;;4997041;28;20200;-80
2023/01/05 06:10:31;;;;;;;7.63;1.35;;;9.80;99.90;;;;;;4996908;28;20672;-82
2023/01/05 06:12:58;;;;;;;2.28;2.08;;;9.80;99.90;;;;;;4996923;28;20283;-84
2023/01/05 06:15:25;;;;;;;27.25;2.13;;;9.80;99.90;;;;;;4995494;28;20571;-85
2023/01/05 06:17:51;;;;;;;0.50;0.40;;;9.80;99.90;;;;;;4996422;28;20283;-83
2023/01/05 06:20:18;;;;;;;0.70;0.70;;;9.80;99.90;;;;;;4996241;28;20227;-81
2023/01/05 06:22:45;;;;;;;0.50;0.40;;;9.80;99.90;;;;;;4996499;28;20216;-82
2023/01/05 06:25:14;;;;;;;0.50;0.40;;;9.80;99.90;;;;;;4995618;28;20287;-83
2023/01/05 06:27:41;;;;;;;0.60;0.60;;;9.80;99.90;;;;;;4995723;28;20231;-82
2023/01/05 06:30:09;;;;;;;11.83;2.10;;;9.80;99.90;;;;;;4995128;28;20690;-82
2023/01/05 06:32:36;;;;;;;0.50;0.45;;;9.70;99.90;;;;;;4996193;28;20504;-83
2023/01/05 06:35:03;;;;;;;1.25;0.85;;;9.70;99.90;;;;;;4995260;28;20251;-84
2023/01/05 06:37:30;;;;;;;2.10;1.30;;;9.70;99.90;;;;;;4996054;28;20260;-80
2023/01/05 06:39:56;;;;;;;1.55;1.02;;;9.70;99.90;;;;;;4996892;28;20638;-83
2023/01/05 06:42:24;;;;;;;1.40;1.03;;;9.80;99.90;;;;;;4996851;28;20236;-80
2023/01/05 06:44:51;;;;;;;5.18;1.83;;;9.70;99.90;;;;;;4999227;28;20458;-80
2023/01/05 06:47:19;;;;;;;0.80;0.60;;;9.70;99.90;;;;;;5000366;28;20200;-83
2023/01/05 06:49:45;;;;;;;4.00;2.78;;;9.70;99.90;;;;;;5007321;28;20231;-83
2023/01/05 06:52:12;;;;;;;3.25;1.08;;;9.60;99.90;;;;;;5019569;28;20218;-82
2023/01/05 06:54:39;;;;;;;0.85;0.85;;;9.60;99.90;;;;;;5018741;28;20511;-81
2023/01/05 06:57:06;;;;;;;0.83;0.83;;;9.60;99.90;;;;;;5019445;28;20200;-82
2023/01/05 06:59:35;;;;;;;2.60;2.20;;;9.70;99.90;;;;;;5019555;28;20541;-81
2023/01/05 07:02:01;;;;;;;6.70;2.53;;;9.60;99.90;;;;;;5019208;28;20562;-81
2023/01/05 07:04:28;;;;;;;0.50;0.50;;;9.70;99.90;;;;;;5018412;28;20449;-80
2023/01/05 07:06:55;;;;;;;2.78;1.58;;;9.60;99.90;;;;;;5018198;28;20206;-80
2023/01/05 07:09:22;;;;;;;2.25;0.90;;;9.60;99.90;;;;;;5019223;28;20199;-82
2023/01/05 07:11:49;;;;;;;11.55;1.50;;;9.60;99.90;;;;;;5020207;28;20279;-82
2023/01/05 07:14:16;;;;;;;10.47;2.40;;;9.60;99.90;;;;;;5018116;28;20313;-80
2023/01/05 07:16:44;;;;;;;2.40;0.77;;;9.60;99.90;;;;;;5020026;28;20435;-83
2023/01/05 07:19:11;;;;;;;0.50;0.40;;;9.60;99.90;;;;;;5019573;28;20196;-82
2023/01/05 07:21:38;;;;;;;1.85;1.75;;;9.60;99.90;;;;;;5018846;28;20713;-80
2023/01/05 07:24:05;;;;;;;0.50;0.40;;;9.60;99.90;;;;;;5017653;28;20262;-82
2023/01/05 07:26:32;;;;;;;1.35;1.25;;;9.60;99.90;;;;;;5019120;28;20200;-81
2023/01/05 07:28:59;;;;;;;1.08;0.88;;;9.60;99.90;;;;;;5018926;28;20210;-81
2023/01/05 07:31:26;;;;;;;2.70;2.50;;;9.60;99.90;;;;;;5018492;28;20223;-83
2023/01/05 07:33:54;;;;;;;8.63;1.33;;;9.60;99.90;;;;;;5017078;28;20283;-82
2023/01/05 07:36:21;;;;;;;0.70;0.63;;;9.60;99.90;;;;;;5018158;28;20522;-83
2023/01/05 07:38:47;;;;;;;2.35;2.15;;;9.60;99.90;;;;;;5018715;28;20627;-81
2023/01/05 07:41:14;;;;;;;5.70;2.67;;;9.60;99.90;;;;;;5017733;28;20244;-82
2023/01/05 07:43:41;;;;;;;0.50;0.40;;;9.60;99.90;;;;;;5027136;28;20216;-80
2023/01/05 07:46:09;;;;;;;2.00;1.90;;;9.50;99.90;;;;;;5034651;28;20176;-81
2023/01/05 07:48:36;;;;;;;0.50;0.40;;;9.50;99.90;;;;;;5033654;28;20453;-82
2023/01/05 07:51:05;;;;;;;9.98;3.60;;;9.50;99.90;;;;;;5019456;28;20463;-81
2023/01/05 07:53:37;;;;;;;16.15;2.53;;;9.60;99.90;;;;;;5019849;28;20250;-82
2023/01/05 07:56:05;;;;;;;3.28;1.35;;;9.60;99.90;;;;;;5018064;28;20183;-83
2023/01/05 07:58:33;;;;;;;1.30;1.20;;;9.60;99.90;;;;;;5018745;28;20219;-81
2023/01/05 08:01:04;;;;;;;4.75;2.25;;;9.60;99.90;;;;;;5018332;28;20585;-81
2023/01/05 08:03:31;;;;;;;0.60;0.60;;;9.60;99.90;;;;;;5018011;28;20201;-82
2023/01/05 08:05:58;;;;;;;0.60;0.57;;;9.60;99.90;;;;;;5016210;28;20228;-84
2023/01/05 08:08:26;;;;;;;2.15;1.95;;;9.60;99.90;;;;;;5022844;28;20693;-83
2023/01/05 08:10:53;;;;;;;0.50;0.50;;;9.60;99.90;;;;;;5022984;28;20220;-79
2023/01/05 08:16:05;;;;;;;2.95;2.85;;;9.60;99.90;;;;;;5019264;28;20649;-80
2023/01/05 08:18:32;;;;;;;0.90;0.65;;;9.60;99.90;;;;;;5018400;28;20734;-80
2023/01/05 08:21:03;;;;;;;9.13;1.15;;;9.60;99.90;;;;;;5017999;28;20299;-79
2023/01/05 08:23:32;;;;;;;0.50;0.40;;;9.60;99.90;;;;;;5017383;28;20204;-82
2023/01/05 08:26:05;;;;;;;16.35;3.20;;;9.70;99.90;;;;;;5016528;28;20287;-78
2023/01/05 08:28:32;;;;;;;1.35;1.25;;;9.70;99.90;;;;;;5017503;28;20184;-79
2023/01/05 08:31:01;;;;;;;17.75;3.08;;;9.70;99.90;;;;;;5026695;28;20223;-84
2023/01/05 08:33:28;;;;;;;0.70;0.70;;;9.70;99.90;;;;;;5023274;28;20231;-83
2023/01/05 08:35:54;;;;;;;0.50;0.50;;;9.70;99.90;;;;;;5023872;28;20282;-83
2023/01/05 08:38:22;;;;;;;0.93;0.93;;;9.70;99.90;;;;;;5020050;28;20282;-80
2023/01/05 08:40:50;;;;;;;0.50;0.40;;;9.80;99.90;;;;;;5022882;28;20230;-82
2023/01/05 08:43:17;;;;;;;3.47;1.52;;;9.80;99.90;;;;;;5027085;28;20302;-81
2023/01/05 08:45:48;;;;;;;0.50;0.40;;;9.80;99.90;;;;;;5022739;28;20192;-81
2023/01/05 08:48:16;;;;;;;3.53;1.90;;;9.80;99.90;;;;;;5021845;28;20490;-83
2023/01/05 08:50:42;;;;;;;1.35;1.25;;;9.90;99.90;;;;;;5019899;28;20283;-80
2023/01/05 08:53:09;;;;;;;8.07;2.65;;;9.90;99.90;;;;;;5018622;28;20194;-83
2023/01/05 08:55:36;;;;;;;0.63;0.63;;;9.90;99.90;;;;;;5019008;28;20200;-81
2023/01/05 08:58:06;;;;;;;0.80;0.80;;;9.90;99.90;;;;;;5018905;28;20287;-78
2023/01/05 09:00:33;;;;;;;0.73;0.73;;;10.00;99.90;;;;;;5017355;28;20974;-82
2023/01/05 09:03:00;;;;;;;12.18;1.73;;;10.00;99.90;;;;;;5019151;28;20408;-81
2023/01/05 09:05:26;;;;;;;4.97;0.77;;;10.00;99.90;;;;;;5018125;28;20196;-81
2023/01/05 09:07:53;;;;;;;0.50;0.50;;;10.00;99.90;;;;;;5021459;28;20737;-81
2023/01/05 09:10:20;;;;;;;0.50;0.40;;;10.00;99.90;;;;;;5021905;28;20543;-81
2023/01/05 09:12:47;;;;;;;0.50;0.40;;;10.00;99.90;;;;;;5019474;28;20219;-81
2023/01/05 09:15:15;;;;;;;0.50;0.40;;;10.00;99.90;;;;;;5019473;28;20286;-81
2023/01/05 09:17:42;;;;;;;0.50;0.40;;;10.10;99.90;;;;;;5019397;28;20219;-80
2023/01/05 09:20:10;;;;;;;2.75;1.70;;;10.10;99.90;;;;;;5019983;28;20268;-81
2023/01/05 09:22:36;;;;;;;0.77;0.77;;;10.10;99.90;;;;;;5018134;28;20566;-80
2023/01/05 09:25:04;;;;;;;1.30;1.30;;;10.20;99.90;;;;;;5018784;28;20449;-80
2023/01/05 09:27:31;;;;;;;0.50;0.40;;;10.20;99.90;;;;;;5019177;28;20199;-81
2023/01/05 09:29:57;;;;;;;5.55;3.25;;;10.20;99.90;;;;;;5019374;28;20215;-82
2023/01/05 09:32:26;;;;;;;5.55;1.20;;;10.20;99.90;;;;;;5019915;28;20207;-80
2023/01/05 09:34:52;;;;;;;2.20;0.70;;;10.10;99.90;;;;;;5018878;28;20299;-82
2023/01/05 09:37:19;;;;;;;17.63;4.47;;;10.10;99.90;;;;;;5019270;28;20474;-83
2023/01/05 09:39:47;;;;;;;8.00;1.73;;;10.10;99.90;;;;;;5020381;28;20633;-82
2023/01/05 09:42:17;;;;;;;3.40;1.35;;;10.10;99.90;;;;;;5022377;28;20211;-82
2023/01/05 09:44:48;;;;;;;0.50;0.50;;;10.10;99.90;;;;;;5020425;28;20287;-82
2023/01/05 09:47:18;;;;;;;0.50;0.30;;;10.10;99.90;;;;;;5018828;28;20196;-81
2023/01/05 09:49:49;;;;;;;0.50;0.40;;;10.20;99.90;;;;;;5022923;28;20264;-82
2023/01/05 09:52:18;;;;;;;3.80;2.17;;;10.20;99.90;;;;;;5036218;28;20192;-84
2023/01/05 09:54:45;;;;;;;0.90;0.73;;;10.20;99.90;;;;;;5025491;28;20872;-82
2023/01/05 09:57:17;;;;;;;0.50;0.40;;;10.20;99.90;;;;;;5016934;28;20466;-81
2023/01/05 09:59:46;;;;;;;6.53;3.00;;;10.30;99.90;;;;;;5016390;28;20431;-81
2023/01/05 10:02:20;;;;;;;0.50;0.40;;;10.40;99.90;;;;;;5015506;28;20739;-80
2023/01/05 10:04:49;;;;;;;1.80;1.70;;;10.40;99.90;;;;;;5015353;28;20206;-82
2023/01/05 10:07:26;;;;;;;1.20;1.10;;;10.50;99.90;;;;;;5013750;28;20196;-81
2023/01/05 10:09:56;;;;;;;0.60;0.60;;;10.50;99.90;;;;;;5015202;28;20274;-81
2023/01/05 10:15:17;;;;;;;0.50;0.40;;;10.50;99.90;;;;;;5014321;28;20238;-83
2023/01/05 10:17:44;;;;;;;0.80;0.70;;;10.50;99.90;;;;;;5017050;28;20887;-81
2023/01/05 10:20:18;;;;;;;4.47;4.03;;;10.60;99.90;;;;;;5019705;28;20983;-83
2023/01/05 10:22:58;;;;;;;1.33;1.23;;;10.70;99.90;;;;;;5019395;28;20525;-81
2023/01/05 10:25:34;;;;;;;0.50;0.30;;;10.80;99.90;;;;;;5018653;28;20485;-82
2023/01/05 10:28:16;;;;;;;2.65;1.33;;;10.90;99.90;;;;;;5018713;28;20489;-82
2023/01/05 10:30:52;;;;;;;1.43;1.33;;;10.90;99.90;;;;;;5020353;28;20231;-83
2023/01/05 10:33:30;;;;;;;0.50;0.40;;;10.90;99.90;;;;;;5019392;28;20549;-80
2023/01/05 10:36:07;;;;;;;0.50;0.40;;;11.00;99.90;;;;;;5018570;28;20869;-83
2023/01/05 10:38:49;;;;;;;0.50;0.30;;;11.10;99.90;;;;;;5019121;28;20866;-81
2023/01/05 10:41:25;;;;;;;13.07;4.23;;;11.30;99.90;;;;;;5019324;28;20473;-80
2023/01/05 10:44:21;;;;;;;0.50;0.40;;;11.30;99.90;;;;;;5018499;28;20557;-83
2023/01/05 10:46:49;;;;;;;1.27;0.97;;;11.40;99.90;;;;;;5018756;28;20488;-80
2023/01/05 10:49:20;;;;;;;0.60;0.50;;;11.40;99.90;;;;;;5018808;28;20522;-81
2023/01/05 10:51:50;;;;;;;1.63;1.53;;;11.50;99.90;;;;;;5018711;28;20984;-83
2023/01/05 10:54:38;;;;;;;6.80;2.20;;;11.50;99.90;;;;;;5017749;28;20518;-82
2023/01/05 10:57:34;;;;;;;0.60;0.60;;;11.50;99.90;;;;;;5018722;28;20431;-80
2023/01/05 11:00:03;;;;;;;0.90;0.90;;;11.50;99.90;;;;;;5019147;28;20445;-79
2023/01/05 11:02:34;;;;;;;4.43;1.73;;;11.40;99.90;;;;;;5019096;28;20443;-83
2023/01/05 11:05:05;;;;;;;0.50;0.45;;;11.40;99.90;;;;;;5018210;28;20505;-82
2023/01/05 11:07:47;;;;;;;0.50;0.40;;;11.40;99.90;;;;;;5018162;28;20192;-81
2023/01/05 11:10:24;;;;;;;2.30;2.13;;;11.30;99.90;;;;;;5018028;28;20564;-83
2023/01/05 11:12:54;;;;;;;0.50;0.40;;;11.30;99.90;;;;;;5018152;28;21035;-81
2023/01/05 11:15:21;;;;;;;0.63;0.63;;;11.30;99.90;;;;;;5017548;28;20446;-83
2023/01/05 11:17:48;;;;;;;0.80;0.80;;;11.30;99.90;;;;;;5017833;28;20470;-81
2023/01/05 11:20:17;;;;;;;1.10;0.97;;;11.30;99.90;;;;;;5017646;28;20562;-81
2023/01/05 11:22:47;;;;;;;17.53;2.90;;;11.30;99.90;;;;;;5018249;28;20526;-82
2023/01/05 11:25:22;;;;;;;0.50;0.43;;;11.30;99.90;;;;;;5017441;28;20479;-81
2023/01/05 11:28:05;;;;;;;1.53;0.93;;;11.30;99.90;;;;;;5019205;28;20461;-81
2023/01/05 11:30:33;;;;;;;0.87;0.73;;;11.20;99.90;;;;;;5017109;28;20562;-81
2023/01/05 11:33:01;;;;;;;0.50;0.40;;;11.20;99.90;;;;;;5018994;28;20446;-81
2023/01/05 11:35:31;;;;;;;0.50;0.30;;;11.20;99.90;;;;;;5017504;28;20450;-81
2023/01/05 11:38:00;;;;;;;0.50;0.40;;;11.20;99.90;;;;;;5018151;28;20435;-82
2023/01/05 11:40:31;;;;;;;0.80;0.80;;;11.20;99.90;;;;;;5018261;28;20471;-82
2023/01/05 11:42:59;;;;;;;1.27;1.17;;;11.20;99.90;;;;;;5018507;28;20533;-82
2023/01/05 11:45:28;;;;;;;1.87;0.93;;;11.30;99.90;;;;;;5017972;28;20475;-79
2023/01/05 11:47:58;;;;;;;0.50;0.40;;;11.30;99.90;;;;;;5018478;28;20526;-81
2023/01/05 11:50:27;;;;;;;1.13;1.03;;;11.40;99.90;;;;;;5018850;28;21030;-82
2023/01/05 11:52:55;;;;;;;14.87;1.80;;;11.40;99.90;;;;;;5020064;28;20443;-79
2023/01/05 11:55:34;;;;;;;0.73;0.73;;;11.40;99.90;;;;;;5032928;28;20494;-82
2023/01/05 11:58:23;;;;;;;1.33;0.93;;;11.40;99.90;;;;;;5035199;28;20434;-81
2023/01/05 12:01:21;;;;;;;1.77;1.67;;;11.50;99.90;;;;;;5033738;28;20451;-80
2023/01/05 12:04:01;;;;;;;8.60;2.50;;;11.50;99.90;;;;;;5033357;28;20492;-81
2023/01/05 12:06:43;;;;;;;3.80;2.30;;;11.50;99.90;;;;;;5031514;28;20435;-82
2023/01/05 12:09:21;;;;;;;0.50;0.40;;;11.50;99.90;;;;;;5035296;28;20431;-83
2023/01/05 12:12:05;;;;;;;4.83;1.00;;;11.50;99.90;;;;;;5033628;28;20518;-81
2023/01/05 12:14:53;;;;;;;5.90;3.80;;;11.70;99.90;;;;;;5033561;28;20475;-80
2023/01/05 12:17:26;;;;;;;0.50;0.40;;;11.70;99.90;;;;;;5034433;28;20522;-83
2023/01/05 12:20:03;;;;;;;1.17;0.80;;;11.70;99.90;;;;;;5031679;28;20514;-79
2023/01/05 12:22:43;;;;;;;3.60;0.83;;;11.70;99.90;;;;;;5031704;28;20506;-80
2023/01/05 12:25:26;;;;;;;0.50;0.40;;;11.70;99.90;;;;;;5035866;28;20462;-85
2023/01/05 12:28:18;;;;;;;0.50;0.40;;;11.70;99.90;;;;;;5037378;28;20414;-86
2023/01/05 12:30:50;;;;;;;0.50;0.40;;;11.80;99.90;;;;;;5024449;28;20474;-84
2023/01/05 12:33:38;;;;;;;0.80;0.80;;;11.90;99.90;;;;;;5021801;28;20534;-83
2023/01/05 12:36:20;;;;;;;0.80;0.50;;;12.00;99.90;;;;;;5019379;28;20458;-83
2023/01/05 12:38:53;;;;;;;6.63;1.53;;;12.00;99.90;;;;;;5019468;28;20469;-82
2023/01/05 12:42:03;;;;;;;14.37;1.33;;;12.10;99.90;;;;;;5017605;28;20841;-84
2023/01/05 12:45:14;;;;;;;0.50;0.40;;;12.00;99.90;;;;;;5017346;28;20543;-84
2023/01/05 12:47:56;;;;;;;0.50;0.40;;;12.10;99.90;;;;;;4939183;29;20477;-84
2023/01/05 12:50:28;;;;;;;0.50;0.40;;;12.20;99.90;;;;;;5007189;28;20467;-85
2023/01/05 12:53:02;;;;;;;5.70;1.63;;;12.20;99.90;;;;;;5018827;28;20435;-85
2023/01/05 12:55:32;;;;;;;5.80;2.03;;;12.20;99.90;;;;;;5018112;28;20428;-85
2023/01/05 12:58:04;;;;;;;4.13;1.43;;;12.20;99.90;;;;;;5019111;28;20505;-84
2023/01/05 13:00:40;;;;;;;6.73;1.87;;;12.10;99.90;;;;;;5019987;28;20470;-84
2023/01/05 13:03:16;;;;;;;0.50;0.30;;;12.20;99.90;;;;;;5024227;28;20479;-85
2023/01/05 13:05:49;;;;;;;4.40;1.90;;;12.10;99.90;;;;;;5021450;28;20485;-83
2023/01/05 13:08:20;;;;;;;5.43;1.43;;;12.00;99.90;;;;;;5023594;28;20530;-84
2023/01/05 13:10:53;;;;;;;1.30;1.20;;;11.90;99.90;;;;;;5023406;28;20467;-82
2023/01/05 13:13:24;;;;;;;0.80;0.80;;;11.90;99.90;;;;;;5023059;28;20522;-84
2023/01/05 13:16:00;;;;;;;2.00;1.40;;;11.90;99.90;;;;;;5023601;28;20526;-84
2023/01/05 13:18:27;;;;;;;0.57;0.47;;;12.00;99.90;;;;;;5024825;28;20503;-84
2023/01/05 13:20:57;;;;;;;4.67;2.37;;;12.10;99.90;;;;;;5024078;28;20518;-83
2023/01/05 13:23:27;;;;;;;1.37;1.17;;;12.10;99.90;;;;;;5024435;28;20470;-84
2023/01/05 13:25:58;;;;;;;0.50;0.43;;;12.10;99.90;;;;;;5023036;28;20486;-84
2023/01/05 13:28:25;;;;;;;2.43;1.30;;;12.10;99.90;;;;;;5023957;28;20457;-84
2023/01/05 13:31:25;;;;;;;3.93;1.17;;;12.10;99.90;;;;;;5024152;28;20463;-84
2023/01/05 13:34:17;;;;;;;1.00;1.00;;;12.00;99.90;;;;;;5024093;28;20441;-83
2023/01/05 13:37:05;;;;;;;0.53;0.50;;;12.00;99.90;;;;;;5025050;28;20466;-82
2023/01/05 13:39:47;;;;;;;0.50;0.40;;;12.10;99.90;;;;;;5023885;28;20490;-86
2023/01/05 13:42:37;;;;;;;0.50;0.40;;;12.20;99.90;;;;;;5024280;28;20478;-84
2023/01/05 13:45:28;;;;;;;0.50;0.40;;;12.20;99.90;;;;;;5019756;28;20466;-84
2023/01/05 13:48:24;;;;;;;14.93;3.60;;;12.20;99.90;;;;;;5017248;28;20520;-85